Greenback, Tennessee
Current Conditions -  °F | °C
As of 3:53 PM on Saturday 22 Nov 2014 (Local Time) from KTYS Reporting Station
Broken Clouds Broken Clouds  
Wind Chill: 58°   Ceiling: 25000
Heat Index: 58°   Visibility: 10mi
Dew Point: 30°   Wind: 6mph
Humidity: 35%   Direction: 70°ENE
Pressure: 30.24"   Gusts: NA
Location:  35.66°N, 84.17°W
Report Text: KTYS 222053Z 07005KT 10SM FEW080 BKN250 14/M01 A3024 RMK AO2 SLP242 T01441011 58031
Loading
Personal Weather Stations






























Interactive Weather Map New forecast layout! Learn more

10-Day Weather Forecast

Advertisements
Track Severe Weather on mobile